createdAt,value
2022-09-07T00:00:55.675Z,99970.09
2022-09-07T00:03:29.781Z,99965.97
2022-09-07T00:06:00.646Z,99970.59
2022-09-07T00:08:33.891Z,99964.53
2022-09-07T00:11:04.963Z,99963.13
2022-09-07T00:13:35.643Z,99959.50
2022-09-07T00:16:18.667Z,99959.91
2022-09-07T00:18:46.729Z,99963.53
2022-09-07T00:21:22.380Z,99955.56
2022-09-07T00:24:00.301Z,99959.91
2022-09-07T00:26:41.051Z,99956.66
2022-09-07T00:29:18.053Z,99957.00
2022-09-07T00:31:48.069Z,99954.28
2022-09-07T00:34:21.266Z,99943.88
2022-09-07T00:37:01.426Z,99953.03
2022-09-07T00:39:36.817Z,99946.75
2022-09-07T00:42:09.942Z,99954.56
2022-09-07T00:44:43.171Z,99951.72
2022-09-07T00:47:23.626Z,99936.72
2022-09-07T00:50:00.703Z,99940.25
2022-09-07T00:52:36.573Z,99943.13
2022-09-07T00:55:23.837Z,99942.44
2022-09-07T00:57:58.548Z,99935.59
2022-09-07T01:00:39.538Z,99940.09
2022-09-07T01:03:08.017Z,99937.97
2022-09-07T01:06:13.393Z,99941.38
2022-09-07T01:08:49.690Z,99936.28
2022-09-07T01:11:27.433Z,99938.66
2022-09-07T01:14:04.430Z,99940.69
2022-09-07T01:16:49.702Z,99938.66
2022-09-07T01:19:58.978Z,99937.03
2022-09-07T01:23:09.984Z,99929.22
2022-09-07T01:25:55.797Z,99935.50
2022-09-07T01:28:34.632Z,99938.78
2022-09-07T01:31:41.813Z,99932.41
2022-09-07T01:34:31.732Z,99932.66
2022-09-07T01:37:16.993Z,99930.66
2022-09-07T01:40:01.449Z,99936.78
2022-09-07T01:42:44.034Z,99928.41
2022-09-07T01:45:21.332Z,99924.28
2022-09-07T01:48:11.766Z,99920.38
2022-09-07T01:50:59.037Z,99922.03
2022-09-07T01:53:43.868Z,99916.84
2022-09-07T01:56:19.956Z,99917.66
2022-09-07T01:58:59.196Z,99915.44
2022-09-07T02:01:39.471Z,99914.34
2022-09-07T02:04:10.516Z,99912.13
2022-09-07T02:07:05.864Z,99916.34
2022-09-07T02:10:04.351Z,99915.66
2022-09-07T02:13:12.357Z,99910.13
2022-09-07T02:15:55.829Z,99916.09
2022-09-07T02:18:34.641Z,99910.13
2022-09-07T02:21:03.179Z,99913.28
2022-09-07T02:23:48.351Z,99918.69
2022-09-07T02:26:24.309Z,99915.88
2022-09-07T02:29:05.521Z,99916.09
2022-09-07T02:31:37.387Z,99914.88
2022-09-07T02:34:17.819Z,99911.22
2022-09-07T02:36:48.195Z,99902.25
2022-09-07T02:39:15.325Z,99896.47
2022-09-07T02:41:48.588Z,99889.38
2022-09-07T02:44:31.565Z,99898.13
2022-09-07T02:47:21.013Z,99897.47
2022-09-07T02:50:03.695Z,99889.16
2022-09-07T02:53:12.542Z,99892.22
2022-09-07T02:56:03.400Z,99885.97
2022-09-07T02:58:58.131Z,99885.59
2022-09-07T03:01:57.520Z,99895.63
2022-09-07T03:04:58.472Z,99883.00
2022-09-07T03:07:44.440Z,99885.84
2022-09-07T03:10:21.201Z,99884.97
2022-09-07T03:12:52.263Z,99888.44
2022-09-07T03:15:24.746Z,99888.56
2022-09-07T03:17:58.819Z,99890.69
2022-09-07T03:20:26.641Z,99895.16
2022-09-07T03:22:53.711Z,99890.19
2022-09-07T03:25:24.008Z,99886.28
2022-09-07T03:27:51.139Z,99888.41
2022-09-07T03:30:24.550Z,99889.63
2022-09-07T03:32:59.483Z,99892.31
2022-09-07T03:35:32.226Z,99890.06
2022-09-07T03:37:59.375Z,99895.34
2022-09-07T03:40:32.404Z,99894.19
2022-09-07T03:43:04.191Z,99896.88
2022-09-07T03:45:51.372Z,99892.97
2022-09-07T03:48:25.996Z,99896.06
2022-09-07T03:51:01.549Z,99890.66
2022-09-07T03:53:31.931Z,99897.50
2022-09-07T03:56:08.685Z,99903.59
2022-09-07T03:58:36.420Z,99905.13
2022-09-07T04:01:22.416Z,99894.59
2022-09-07T04:04:03.009Z,99899.44
2022-09-07T04:06:39.102Z,99901.22
2022-09-07T04:09:12.030Z,99905.38
2022-09-07T04:11:44.689Z,99904.91
2022-09-07T04:14:14.165Z,99903.09
2022-09-07T04:16:52.855Z,99913.38
2022-09-07T04:19:22.933Z,99919.22
2022-09-07T04:21:55.405Z,99925.03
2022-09-07T04:24:26.935Z,99919.84
2022-09-07T04:26:57.014Z,99930.69
2022-09-07T04:29:24.139Z,99922.53
2022-09-07T04:31:59.449Z,99932.94
2022-09-07T04:34:42.129Z,99926.06
2022-09-07T04:37:12.687Z,99927.88
2022-09-07T04:39:40.202Z,99921.63
2022-09-07T04:42:07.470Z,99914.81
2022-09-07T04:44:37.167Z,99917.19
2022-09-07T04:47:07.264Z,99910.94
2022-09-07T04:49:34.552Z,99918.50
2022-09-07T04:52:07.822Z,99922.69
2022-09-07T04:54:34.817Z,99926.72
2022-09-07T04:57:02.016Z,99928.13
2022-09-07T04:59:29.990Z,99927.97
2022-09-07T05:02:08.187Z,99932.53
2022-09-07T05:04:38.076Z,99938.31
2022-09-07T05:07:06.796Z,99933.25
2022-09-07T05:09:33.903Z,99928.31
2022-09-07T05:12:15.383Z,99931.25
2022-09-07T05:14:48.469Z,99928.03
2022-09-07T05:17:21.498Z,99928.97
2022-09-07T05:19:51.493Z,99924.94
2022-09-07T05:22:21.406Z,99931.50
2022-09-07T05:24:50.482Z,99925.19
2022-09-07T05:27:17.601Z,99930.41
2022-09-07T05:30:06.253Z,99931.06
2022-09-07T05:32:45.270Z,99922.16
2022-09-07T05:35:15.294Z,99920.53
2022-09-07T05:37:42.323Z,99925.50
2022-09-07T05:40:09.883Z,99930.44
2022-09-07T05:42:39.891Z,99931.44
2022-09-07T05:45:13.846Z,99936.16
2022-09-07T05:47:46.141Z,99939.44
2022-09-07T05:50:13.183Z,99936.25
2022-09-07T05:52:45.831Z,99940.38
2022-09-07T05:55:29.332Z,99946.38
2022-09-07T05:57:57.429Z,99957.28
2022-09-07T06:00:28.073Z,99948.25
2022-09-07T06:03:06.929Z,99953.56
2022-09-07T06:05:36.193Z,99950.34
2022-09-07T06:08:12.320Z,99956.69
2022-09-07T06:13:17.736Z,99965.06
2022-09-07T06:15:50.669Z,99961.03
2022-09-07T06:18:20.581Z,99967.66
2022-09-07T06:20:48.652Z,99966.88
2022-09-07T06:23:18.922Z,99961.19
2022-09-07T06:25:49.967Z,99951.84
2022-09-07T06:28:49.707Z,99949.66
2022-09-07T06:31:19.842Z,99948.56
2022-09-07T06:33:52.395Z,99954.59
2022-09-07T06:36:27.950Z,99957.28
2022-09-07T06:38:59.273Z,99939.09
2022-09-07T06:44:27.533Z,99937.38
2022-09-07T06:49:28.723Z,99930.16
2022-09-07T06:51:58.178Z,99920.75
2022-09-07T06:57:36.569Z,99924.63
2022-09-07T07:00:18.209Z,99924.31
2022-09-07T07:02:50.162Z,99928.84
2022-09-07T07:05:22.207Z,99926.75
2022-09-07T07:07:55.402Z,99937.94
2022-09-07T07:10:24.768Z,99946.22
2022-09-07T07:12:57.586Z,99949.88
2022-09-07T07:15:28.915Z,99947.75
2022-09-07T07:18:21.231Z,99942.88
2022-09-07T07:20:55.832Z,99940.94
2022-09-07T07:23:25.143Z,99938.50
2022-09-07T07:26:01.198Z,99943.41
2022-09-07T07:31:23.338Z,99947.75
2022-09-07T07:33:54.197Z,99941.84
2022-09-07T07:36:27.407Z,99946.59
2022-09-07T07:44:16.748Z,99959.09
2022-09-07T07:46:44.431Z,99950.44
2022-09-07T07:49:14.017Z,99946.19
2022-09-07T07:54:38.732Z,99940.31
2022-09-07T07:57:06.145Z,99938.41
2022-09-07T07:59:43.967Z,99941.38
2022-09-07T08:04:59.050Z,99937.59
2022-09-07T08:07:26.068Z,99937.69
2022-09-07T08:09:53.161Z,99941.22
2022-09-07T08:12:26.603Z,99943.06
2022-09-07T08:14:56.225Z,99938.16
2022-09-07T08:17:23.324Z,99929.94
2022-09-07T08:19:56.355Z,99936.56
2022-09-07T08:22:26.720Z,99939.63
2022-09-07T08:24:53.684Z,99946.66
2022-09-07T08:27:20.894Z,99931.78
2022-09-07T08:29:53.287Z,99939.72
2022-09-07T08:32:28.248Z,99940.41
2022-09-07T08:35:01.025Z,99931.81
2022-09-07T08:37:31.760Z,99930.34
2022-09-07T08:40:01.962Z,99923.84
2022-09-07T08:42:40.621Z,99918.53
2022-09-07T08:45:41.295Z,99918.47
2022-09-07T08:48:16.598Z,99920.50
2022-09-07T08:51:04.458Z,99920.00
2022-09-07T08:53:42.446Z,99921.81
2022-09-07T08:56:17.845Z,99917.03
2022-09-07T08:58:51.216Z,99916.31
2022-09-07T09:07:37.203Z,99917.66
2022-09-07T09:10:24.844Z,99915.66
2022-09-07T09:13:10.009Z,99912.03
2022-09-07T09:16:12.183Z,99907.06
2022-09-07T09:18:48.189Z,99911.81
2022-09-07T09:21:24.911Z,99905.78
2022-09-07T09:23:55.246Z,99902.81
2022-09-07T09:26:31.592Z,99901.91
2022-09-07T09:29:02.313Z,99903.91
2022-09-07T09:31:38.780Z,99902.81
2022-09-07T09:34:09.359Z,99896.97
2022-09-07T09:36:47.942Z,99898.31
2022-09-07T09:39:29.614Z,99898.38
2022-09-07T09:42:00.110Z,99894.81
2022-09-07T09:44:38.436Z,99901.09
2022-09-07T09:50:09.473Z,99899.00
2022-09-07T09:52:49.194Z,99897.75
2022-09-07T09:55:36.084Z,99893.53
2022-09-07T10:03:10.557Z,99894.31
2022-09-07T10:04:35.154Z,99883.88
2022-09-07T10:07:39.089Z,99878.25
2022-09-07T10:10:16.700Z,99885.59
2022-09-07T10:12:49.363Z,99876.59
2022-09-07T10:15:41.061Z,99881.38
2022-09-07T10:18:27.134Z,99878.72
2022-09-07T10:21:31.286Z,99874.31
2022-09-07T10:24:14.618Z,99864.84
2022-09-07T10:26:50.818Z,99865.75
2022-09-07T10:29:40.272Z,99863.50
2022-09-07T10:32:11.738Z,99867.59
2022-09-07T10:35:16.945Z,99865.31
2022-09-07T10:38:06.752Z,99860.88
2022-09-07T10:40:47.807Z,99863.28
2022-09-07T10:43:32.773Z,99857.91
2022-09-07T10:46:59.594Z,99854.25
2022-09-07T10:49:30.998Z,99854.25
2022-09-07T10:52:17.735Z,99852.66
2022-09-07T10:55:00.918Z,99854.44
2022-09-07T10:57:45.664Z,99846.88
2022-09-07T11:00:24.315Z,99856.16
2022-09-07T11:03:26.109Z,99847.34
2022-09-07T11:06:12.392Z,99844.41
2022-09-07T11:12:05.652Z,99842.09
2022-09-07T11:14:53.509Z,99850.50
2022-09-07T11:17:28.294Z,99845.34
2022-09-07T11:21:04.937Z,99839.78
2022-09-07T11:23:54.353Z,99838.09
2022-09-07T11:26:50.557Z,99830.69
2022-09-07T11:30:11.727Z,99827.00
2022-09-07T11:33:21.460Z,99831.97
2022-09-07T11:36:28.999Z,99818.19
2022-09-07T11:39:05.149Z,99818.53
2022-09-07T11:41:46.291Z,99821.78
2022-09-07T11:44:32.827Z,99817.84
2022-09-07T11:47:11.085Z,99811.91
2022-09-07T11:49:41.488Z,99801.94
2022-09-07T11:52:19.360Z,99804.16
2022-09-07T11:54:53.275Z,99798.59
2022-09-07T11:57:49.683Z,99801.88
2022-09-07T12:00:29.937Z,99801.66
2022-09-07T12:03:24.431Z,99793.91
2022-09-07T12:06:08.769Z,99796.69
2022-09-07T12:08:57.146Z,99791.94
2022-09-07T12:11:26.174Z,99793.66
2022-09-07T12:14:34.678Z,99795.53
2022-09-07T12:17:20.741Z,99796.19
2022-09-07T12:20:10.316Z,99789.13
2022-09-07T12:22:54.598Z,99794.66
2022-09-07T12:25:26.475Z,99787.69
2022-09-07T12:27:54.132Z,99787.25
2022-09-07T12:30:31.945Z,99783.19
2022-09-07T12:33:18.817Z,99779.41
2022-09-07T12:35:51.820Z,99775.34
2022-09-07T12:38:45.867Z,99775.91
2022-09-07T12:41:26.632Z,99774.91
2022-09-07T12:44:07.074Z,99770.38
2022-09-07T12:46:35.591Z,99768.31
2022-09-07T12:49:19.323Z,99777.00
2022-09-07T12:52:16.809Z,99770.81
2022-09-07T12:55:25.751Z,99758.75
2022-09-07T12:58:35.289Z,99760.38
2022-09-07T13:01:30.648Z,99748.47
2022-09-07T13:04:31.391Z,99752.34
2022-09-07T13:07:22.934Z,99748.00
2022-09-07T13:10:08.823Z,99747.19
2022-09-07T13:12:57.638Z,99744.94
2022-09-07T13:15:33.148Z,99742.19
2022-09-07T13:18:13.370Z,99745.09
2022-09-07T13:20:46.709Z,99740.81
2022-09-07T13:23:21.832Z,99737.25
2022-09-07T13:26:01.584Z,99737.03
2022-09-07T13:28:36.047Z,99735.50
2022-09-07T13:31:19.850Z,99726.63
2022-09-07T13:33:54.246Z,99720.66
2022-09-07T13:36:48.776Z,99725.81
2022-09-07T13:39:23.747Z,99724.69
2022-09-07T13:41:56.389Z,99723.34
2022-09-07T13:44:35.998Z,99729.22
2022-09-07T13:47:32.851Z,99722.78
2022-09-07T13:50:17.862Z,99713.09
2022-09-07T13:53:15.041Z,99705.75
2022-09-07T13:55:57.014Z,99706.88
2022-09-07T13:58:37.458Z,99707.53
2022-09-07T14:01:24.145Z,99701.91
2022-09-07T14:04:23.482Z,99696.88
2022-09-07T14:07:06.715Z,99696.81
2022-09-07T14:09:38.250Z,99695.34
2022-09-07T14:12:16.057Z,99696.00
2022-09-07T14:14:45.646Z,99689.31
2022-09-07T14:17:20.850Z,99687.41
2022-09-07T14:20:06.869Z,99681.09
2022-09-07T14:22:36.562Z,99690.59
2022-09-07T14:25:09.317Z,99687.22
2022-09-07T14:27:43.814Z,99688.72
2022-09-07T14:30:23.839Z,99690.31
2022-09-07T14:33:01.109Z,99682.59
2022-09-07T14:35:40.028Z,99690.53
2022-09-07T14:41:24.141Z,99686.13
2022-09-07T14:44:02.755Z,99687.72
2022-09-07T14:46:36.923Z,99688.94
2022-09-07T14:49:19.440Z,99687.13
2022-09-07T14:51:48.410Z,99692.75
2022-09-07T14:54:30.648Z,99684.97
2022-09-07T14:57:34.334Z,99683.13
2022-09-07T15:00:32.089Z,99683.84
2022-09-07T15:03:01.700Z,99675.56
2022-09-07T15:05:35.976Z,99675.25
2022-09-07T15:08:46.014Z,99680.69
2022-09-07T15:11:33.668Z,99683.25
2022-09-07T15:14:16.492Z,99680.25
2022-09-07T15:17:42.620Z,99674.31
2022-09-07T15:19:37.394Z,99669.34
2022-09-07T15:22:20.397Z,99677.22
2022-09-07T15:24:48.027Z,99673.97
2022-09-07T15:27:24.913Z,99676.66
2022-09-07T15:29:58.707Z,99678.03
2022-09-07T15:32:31.575Z,99673.34
2022-09-07T15:34:58.388Z,99681.75
2022-09-07T15:40:44.114Z,99681.03
2022-09-07T15:43:28.275Z,99676.41
2022-09-07T15:48:56.970Z,99678.78
2022-09-07T15:54:22.573Z,99683.56
2022-09-07T15:59:47.122Z,99685.63
2022-09-07T16:05:13.607Z,99688.50
2022-09-07T16:10:43.565Z,99686.31
2022-09-07T16:13:19.209Z,99693.75
2022-09-07T16:15:49.717Z,99683.66
2022-09-07T16:18:19.833Z,99685.22
2022-09-07T16:20:55.735Z,99688.19
2022-09-07T16:23:27.097Z,99685.75
2022-09-07T16:26:04.508Z,99682.41
2022-09-07T16:28:35.575Z,99676.44
2022-09-07T16:31:26.361Z,99678.09
2022-09-07T16:33:56.023Z,99672.91
2022-09-07T16:36:33.154Z,99672.28
2022-09-07T16:39:01.382Z,99669.63
2022-09-07T16:41:34.007Z,99665.63
2022-09-07T16:44:06.591Z,99670.66
2022-09-07T16:46:42.408Z,99666.72
2022-09-07T16:49:14.999Z,99662.38
2022-09-07T16:51:56.826Z,99667.50
2022-09-07T16:54:26.263Z,99670.84
2022-09-07T16:56:58.822Z,99664.19
2022-09-07T16:59:31.180Z,99663.13
2022-09-07T17:02:02.973Z,99660.38
2022-09-07T17:04:29.941Z,99658.13
2022-09-07T17:06:59.575Z,99656.53
2022-09-07T17:09:31.656Z,99658.75
2022-09-07T17:12:04.739Z,99658.19
2022-09-07T17:14:36.966Z,99654.13
2022-09-07T17:17:08.013Z,99650.91
2022-09-07T17:19:40.513Z,99652.34
2022-09-07T17:22:20.540Z,99646.31
2022-09-07T17:24:53.568Z,99656.03
2022-09-07T17:28:05.315Z,99652.81
2022-09-07T17:30:39.741Z,99659.41
2022-09-07T17:33:17.169Z,99649.59
2022-09-07T17:36:05.010Z,99654.22
2022-09-07T17:41:29.840Z,99669.06
2022-09-07T17:44:00.983Z,99663.91
2022-09-07T17:46:31.711Z,99673.91
2022-09-07T17:49:11.512Z,99679.84
2022-09-07T17:51:45.247Z,99680.31
2022-09-07T17:54:16.272Z,99681.59
2022-09-07T17:56:43.608Z,99688.28
2022-09-07T18:02:22.416Z,99694.00
2022-09-07T18:04:52.199Z,99705.72
2022-09-07T18:07:27.834Z,99701.44
2022-09-07T18:09:57.910Z,99696.56
2022-09-07T18:12:27.436Z,99705.47
2022-09-07T18:14:57.103Z,99713.28
2022-09-07T18:17:55.760Z,99714.97
2022-09-07T18:20:38.728Z,99716.16
2022-09-07T18:23:11.703Z,99716.50
2022-09-07T18:25:44.376Z,99731.09
2022-09-07T18:31:16.318Z,99726.22
2022-09-07T18:33:44.439Z,99722.66
2022-09-07T18:36:18.961Z,99726.25
2022-09-07T18:38:53.570Z,99725.72
2022-09-07T18:41:28.440Z,99723.25
2022-09-07T18:44:00.893Z,99719.16
2022-09-07T18:46:34.691Z,99722.19
2022-09-07T18:49:07.538Z,99713.66
2022-09-07T18:54:29.732Z,99716.97
2022-09-07T18:57:04.937Z,99715.06
2022-09-07T18:59:33.475Z,99720.34
2022-09-07T19:02:08.406Z,99717.88
2022-09-07T19:07:32.067Z,99707.25
2022-09-07T19:10:09.549Z,99705.91
2022-09-07T19:12:45.655Z,99705.06
2022-09-07T19:15:18.982Z,99703.44
2022-09-07T19:17:58.316Z,99701.28
2022-09-07T19:20:33.286Z,99702.09
2022-09-07T19:23:08.875Z,99702.38
2022-09-07T19:25:42.950Z,99701.84
2022-09-07T19:28:22.978Z,99710.59
2022-09-07T19:30:52.652Z,99710.34
2022-09-07T19:33:22.549Z,99704.34
2022-09-07T19:35:58.695Z,99701.03
2022-09-07T19:38:31.435Z,99693.38
2022-09-07T19:41:01.570Z,99696.97
2022-09-07T19:43:40.593Z,99692.06
2022-09-07T19:46:12.735Z,99693.44
2022-09-07T19:48:42.443Z,99684.97
2022-09-07T19:51:12.700Z,99688.22
2022-09-07T19:53:44.022Z,99681.38
2022-09-07T19:56:19.649Z,99678.97
2022-09-07T19:58:57.082Z,99689.38
2022-09-07T20:01:25.109Z,99686.66
2022-09-07T20:04:05.264Z,99684.19
2022-09-07T20:06:35.713Z,99683.69
2022-09-07T20:09:02.480Z,99684.50
2022-09-07T20:11:30.325Z,99687.78
2022-09-07T20:14:25.356Z,99680.66
2022-09-07T20:16:54.743Z,99685.34
2022-09-07T20:19:31.585Z,99686.44
2022-09-07T20:22:04.634Z,99686.94
2022-09-07T20:24:35.525Z,99686.41
2022-09-07T20:27:03.325Z,99671.88
2022-09-07T20:29:38.263Z,99679.03
2022-09-07T20:32:10.181Z,99675.75
2022-09-07T20:34:43.069Z,99677.13
2022-09-07T20:37:22.519Z,99676.28
2022-09-07T20:39:56.580Z,99671.63
2022-09-07T20:42:23.481Z,99675.50
2022-09-07T20:44:55.876Z,99686.16
2022-09-07T20:47:24.041Z,99682.84
2022-09-07T20:49:53.972Z,99681.22
2022-09-07T20:52:23.730Z,99677.94
2022-09-07T20:54:53.082Z,99693.28
2022-09-07T20:57:21.328Z,99691.63
2022-09-07T20:59:56.668Z,99680.97
2022-09-07T21:02:31.535Z,99683.97
2022-09-07T21:05:03.799Z,99680.69
2022-09-07T21:07:30.715Z,99679.31
2022-09-07T21:10:03.414Z,99673.84
2022-09-07T21:12:35.007Z,99681.22
2022-09-07T21:15:11.653Z,99682.84
2022-09-07T21:17:41.622Z,99680.69
2022-09-07T21:20:17.686Z,99676.03
2022-09-07T21:22:49.078Z,99675.22
2022-09-07T21:25:18.578Z,99671.91
2022-09-07T21:27:48.330Z,99678.50
2022-09-07T21:30:22.039Z,99677.38
2022-09-07T21:33:03.085Z,99676.31
2022-09-07T21:35:31.286Z,99680.13
2022-09-07T21:38:05.986Z,99680.69
2022-09-07T21:40:37.418Z,99674.94
2022-09-07T21:43:09.440Z,99676.84
2022-09-07T21:45:36.373Z,99671.66
2022-09-07T21:48:03.334Z,99678.50
2022-09-07T21:50:30.361Z,99674.09
2022-09-07T21:52:57.605Z,99674.38
2022-09-07T21:55:30.188Z,99669.72
2022-09-07T21:58:01.498Z,99667.00
2022-09-07T22:00:28.503Z,99668.91
2022-09-07T22:03:01.078Z,99665.63
2022-09-07T22:05:30.948Z,99670.00
2022-09-07T22:07:58.006Z,99661.53
2022-09-07T22:10:30.474Z,99670.28
2022-09-07T22:13:07.720Z,99674.94
2022-09-07T22:15:39.961Z,99674.09
2022-09-07T22:18:14.302Z,99668.09
2022-09-07T22:20:42.425Z,99668.34
2022-09-07T22:23:12.426Z,99667.78
2022-09-07T22:25:42.797Z,99660.13
2022-09-07T22:28:15.464Z,99665.31
2022-09-07T22:30:42.505Z,99666.91
2022-09-07T22:33:09.543Z,99662.81
2022-09-07T22:35:51.472Z,99662.56
2022-09-07T22:38:24.604Z,99665.81
2022-09-07T22:40:53.062Z,99656.53
2022-09-07T22:43:23.280Z,99663.06
2022-09-07T22:45:55.232Z,99658.16
2022-09-07T22:48:27.230Z,99657.34
2022-09-07T22:51:09.227Z,99656.22
2022-09-07T22:53:46.839Z,99648.31
2022-09-07T22:56:21.968Z,99655.44
2022-09-07T22:58:54.701Z,99658.72
2022-09-07T23:01:25.569Z,99647.22
2022-09-07T23:03:59.794Z,99644.50
2022-09-07T23:06:38.178Z,99651.31
2022-09-07T23:09:11.124Z,99645.59
2022-09-07T23:11:50.915Z,99642.28
2022-09-07T23:14:27.624Z,99640.09
2022-09-07T23:16:58.913Z,99636.81
2022-09-07T23:19:28.932Z,99632.16
2022-09-07T23:21:55.950Z,99637.63
2022-09-07T23:24:28.435Z,99626.44
2022-09-07T23:27:16.631Z,99620.69
2022-09-07T23:29:52.295Z,99622.06
2022-09-07T23:32:22.415Z,99617.94
2022-09-07T23:34:54.197Z,99623.41
2022-09-07T23:37:22.141Z,99617.13
2022-09-07T23:39:49.165Z,99614.91
2022-09-07T23:42:24.868Z,99610.00
2022-09-07T23:44:58.534Z,99608.88
2022-09-07T23:47:26.621Z,99608.88
2022-09-07T23:49:56.234Z,99618.19
2022-09-07T23:52:23.189Z,99613.50
2022-09-07T23:54:50.854Z,99608.56
2022-09-07T23:57:20.967Z,99604.47
2022-09-07T23:59:54.061Z,99606.06
